createdAt,value
2023-02-21T00:00:09.149Z,3.40
2023-02-21T00:03:23.734Z,2.90
2023-02-21T00:06:15.107Z,3.00
2023-02-21T00:09:06.755Z,2.90
2023-02-21T00:12:03.273Z,3.00
2023-02-21T00:14:55.398Z,2.80
2023-02-21T00:17:47.025Z,3.20
2023-02-21T00:20:40.498Z,3.70
2023-02-21T00:23:32.385Z,3.30
2023-02-21T00:26:24.072Z,4.30
2023-02-21T00:29:16.418Z,3.30
2023-02-21T00:32:07.699Z,5.80
2023-02-21T00:35:00.177Z,3.70
2023-02-21T00:37:51.971Z,2.90
2023-02-21T00:40:43.480Z,3.30
2023-02-21T00:43:36.653Z,2.80
2023-02-21T00:46:28.345Z,3.90
2023-02-21T00:49:19.917Z,2.80
2023-02-21T00:52:11.529Z,4.50
2023-02-21T00:55:02.900Z,4.50
2023-02-21T00:57:54.215Z,3.80
2023-02-21T01:00:47.055Z,3.60
2023-02-21T01:03:38.558Z,3.80
2023-02-21T01:06:33.567Z,4.10
2023-02-21T01:09:25.294Z,4.40
2023-02-21T01:12:17.700Z,3.60
2023-02-21T01:15:09.653Z,4.00
2023-02-21T01:18:01.189Z,4.00
2023-02-21T01:20:53.022Z,5.10
2023-02-21T01:23:44.605Z,5.00
2023-02-21T01:26:36.104Z,5.00
2023-02-21T01:29:27.891Z,4.80
2023-02-21T01:32:19.552Z,5.20
2023-02-21T01:35:11.538Z,6.50
2023-02-21T01:38:03.873Z,5.00
2023-02-21T01:40:56.248Z,4.70
2023-02-21T01:43:48.913Z,6.40
2023-02-21T01:46:41.423Z,5.70
2023-02-21T01:49:38.317Z,5.30
2023-02-21T01:52:30.256Z,6.70
2023-02-21T01:55:22.275Z,6.10
2023-02-21T01:58:15.498Z,6.00
2023-02-21T02:01:07.374Z,4.30
2023-02-21T02:04:00.328Z,6.30
2023-02-21T02:06:51.550Z,6.30
2023-02-21T02:09:43.805Z,5.90
2023-02-21T02:12:37.773Z,5.50
2023-02-21T02:15:34.485Z,6.50
2023-02-21T02:18:46.027Z,6.40
2023-02-21T02:22:05.039Z,5.40
2023-02-21T02:25:21.937Z,4.90
2023-02-21T02:28:28.287Z,5.40
2023-02-21T02:31:35.313Z,6.00
2023-02-21T02:34:38.155Z,4.90
2023-02-21T02:37:23.354Z,10.00
2023-02-21T02:40:10.534Z,4.30
2023-02-21T02:43:02.251Z,4.40
2023-02-21T02:45:42.773Z,4.20
2023-02-21T02:48:23.282Z,4.50
2023-02-21T02:50:59.688Z,4.20
2023-02-21T02:53:36.175Z,5.20
2023-02-21T02:56:14.768Z,4.70
2023-02-21T02:58:56.841Z,4.40
2023-02-21T03:02:03.028Z,3.70
2023-02-21T03:05:04.569Z,3.40
2023-02-21T03:07:58.191Z,4.60
2023-02-21T03:10:44.276Z,3.50
2023-02-21T03:13:30.297Z,3.80
2023-02-21T03:16:16.287Z,4.40
2023-02-21T03:18:56.564Z,3.90
2023-02-21T03:21:39.106Z,3.90
2023-02-21T03:24:19.832Z,3.30
2023-02-21T03:27:00.968Z,4.40
2023-02-21T03:30:09.804Z,4.30
2023-02-21T03:32:48.086Z,3.70
2023-02-21T03:35:23.181Z,4.50
2023-02-21T03:37:59.177Z,6.00
2023-02-21T03:40:36.084Z,3.50
2023-02-21T03:43:11.090Z,4.10
2023-02-21T03:45:51.985Z,4.50
2023-02-21T03:48:32.149Z,5.10
2023-02-21T03:51:24.187Z,3.40
2023-02-21T03:53:57.875Z,3.70
2023-02-21T03:56:42.264Z,3.60
2023-02-21T03:59:36.446Z,4.60
2023-02-21T04:02:10.373Z,3.80
2023-02-21T04:04:44.729Z,3.90
2023-02-21T04:07:23.033Z,4.30
2023-02-21T04:09:57.854Z,3.60
2023-02-21T04:12:40.886Z,5.90
2023-02-21T04:15:16.398Z,4.20
2023-02-21T04:17:50.750Z,4.30
2023-02-21T04:20:25.173Z,4.80
2023-02-21T04:23:03.878Z,4.50
2023-02-21T04:25:39.238Z,4.00
2023-02-21T04:28:18.701Z,4.60
2023-02-21T04:30:52.998Z,6.10
2023-02-21T04:33:28.063Z,5.90
2023-02-21T04:36:02.386Z,3.60
2023-02-21T04:38:42.773Z,4.00
2023-02-21T04:41:18.115Z,5.00
2023-02-21T04:43:52.980Z,5.00
2023-02-21T04:46:26.702Z,4.70
2023-02-21T04:49:00.826Z,5.00
2023-02-21T04:51:34.602Z,4.70
2023-02-21T04:54:08.815Z,6.60
2023-02-21T04:56:42.835Z,5.80
2023-02-21T04:59:16.845Z,4.90
2023-02-21T05:01:50.546Z,4.50
2023-02-21T05:04:24.457Z,5.90
2023-02-21T05:06:59.826Z,5.50
2023-02-21T05:09:33.881Z,5.20
2023-02-21T05:12:11.968Z,5.90
2023-02-21T05:14:46.039Z,5.10
2023-02-21T05:17:20.034Z,5.70
2023-02-21T05:19:55.125Z,4.80
2023-02-21T05:22:29.492Z,5.10
2023-02-21T05:25:03.194Z,5.10
2023-02-21T05:27:37.237Z,4.30
2023-02-21T05:30:14.390Z,5.20
2023-02-21T05:32:48.402Z,5.50
2023-02-21T05:35:22.910Z,6.00
2023-02-21T05:37:57.067Z,5.30
2023-02-21T05:40:31.046Z,5.30
2023-02-21T05:43:04.709Z,5.60
2023-02-21T05:45:38.458Z,6.80
2023-02-21T05:48:12.467Z,6.60
2023-02-21T05:50:46.319Z,4.70
2023-02-21T05:53:20.139Z,6.10
2023-02-21T05:55:53.892Z,5.80
2023-02-21T05:58:27.998Z,5.00
2023-02-21T06:01:02.678Z,5.70
2023-02-21T06:03:37.223Z,6.80
2023-02-21T06:06:11.859Z,5.20
2023-02-21T06:08:51.418Z,5.60
2023-02-21T06:11:33.349Z,5.50
2023-02-21T06:14:10.337Z,5.10
2023-02-21T06:16:44.732Z,6.10
2023-02-21T06:19:19.439Z,5.00
2023-02-21T06:21:53.522Z,4.70
2023-02-21T06:24:27.318Z,5.00
2023-02-21T06:27:01.564Z,4.10
2023-02-21T06:29:35.553Z,4.70
2023-02-21T06:32:11.000Z,5.10
2023-02-21T06:34:46.531Z,4.00
2023-02-21T06:37:22.282Z,4.70
2023-02-21T06:39:56.328Z,4.30
2023-02-21T06:42:30.111Z,5.00
2023-02-21T06:45:03.910Z,4.20
2023-02-21T06:47:37.907Z,4.70
2023-02-21T06:50:13.724Z,4.20
2023-02-21T06:52:47.702Z,4.30
2023-02-21T06:55:26.203Z,4.20
2023-02-21T06:58:00.142Z,4.80
2023-02-21T07:00:34.936Z,4.60
2023-02-21T07:03:09.418Z,4.10
2023-02-21T07:05:44.027Z,3.90
2023-02-21T07:08:19.314Z,4.30
2023-02-21T07:10:53.301Z,4.50
2023-02-21T07:13:27.279Z,4.40
2023-02-21T07:16:01.979Z,3.90
2023-02-21T07:18:36.316Z,3.40
2023-02-21T07:21:10.767Z,4.50
2023-02-21T07:23:45.831Z,3.60
2023-02-21T07:26:20.573Z,4.40
2023-02-21T07:28:55.485Z,4.10
2023-02-21T07:31:29.532Z,3.80
2023-02-21T07:34:05.392Z,4.10
2023-02-21T07:36:41.720Z,3.30
2023-02-21T07:39:15.750Z,4.30
2023-02-21T07:41:49.839Z,5.60
2023-02-21T07:44:29.562Z,4.80
2023-02-21T07:47:03.760Z,3.90
2023-02-21T07:49:42.756Z,3.90
2023-02-21T07:52:16.923Z,4.50
2023-02-21T07:54:51.397Z,5.70
2023-02-21T07:57:25.327Z,5.00
2023-02-21T07:59:59.786Z,4.00
2023-02-21T08:02:33.594Z,4.40
2023-02-21T08:05:10.721Z,4.40
2023-02-21T08:07:45.018Z,4.80
2023-02-21T08:10:25.534Z,4.80
2023-02-21T08:13:01.212Z,7.40
2023-02-21T08:15:36.475Z,4.80
2023-02-21T08:18:20.755Z,5.00
2023-02-21T08:20:55.787Z,67.00
2023-02-21T08:23:30.364Z,18.70
2023-02-21T08:26:06.360Z,146.10
2023-02-21T08:28:40.488Z,54.60
2023-02-21T08:31:15.287Z,14.80
2023-02-21T08:33:50.281Z,12.40
2023-02-21T08:36:31.755Z,11.70
2023-02-21T08:39:06.629Z,9.80
2023-02-21T08:41:43.580Z,10.90
2023-02-21T08:44:21.750Z,5.80
2023-02-21T08:46:55.917Z,5.10
2023-02-21T08:49:30.031Z,5.20
2023-02-21T08:52:05.422Z,14.00
2023-02-21T08:54:40.123Z,7.20
2023-02-21T08:57:14.608Z,6.80
2023-02-21T08:59:50.097Z,4.90
2023-02-21T09:02:26.768Z,4.20
2023-02-21T09:05:02.089Z,4.80
2023-02-21T09:07:36.096Z,4.60
2023-02-21T09:10:13.325Z,3.20
2023-02-21T09:12:48.206Z,3.60
2023-02-21T09:15:22.900Z,3.40
2023-02-21T09:17:56.922Z,3.70
2023-02-21T09:20:31.003Z,3.90
2023-02-21T09:23:05.146Z,3.20
2023-02-21T09:25:39.144Z,4.40
2023-02-21T09:28:12.999Z,3.80
2023-02-21T09:30:47.552Z,2.80
2023-02-21T09:33:22.877Z,2.90
2023-02-21T09:35:58.278Z,2.80
2023-02-21T09:38:32.918Z,3.00
2023-02-21T09:41:10.584Z,3.80
2023-02-21T09:43:49.015Z,3.00
2023-02-21T09:46:34.968Z,2.90
2023-02-21T09:49:18.445Z,3.40
2023-02-21T09:51:54.209Z,2.70
2023-02-21T09:54:34.637Z,2.90
2023-02-21T09:57:15.877Z,3.90
2023-02-21T09:59:51.047Z,8.10
2023-02-21T10:02:46.781Z,5.90
2023-02-21T10:05:39.983Z,3.10
2023-02-21T10:08:30.314Z,4.80
2023-02-21T10:11:23.656Z,2.70
2023-02-21T10:14:11.072Z,3.40
2023-02-21T10:16:54.865Z,3.40
2023-02-21T10:19:33.987Z,4.60
2023-02-21T10:22:21.060Z,5.80
2023-02-21T10:24:55.624Z,32.30
2023-02-21T10:27:34.308Z,4.50
2023-02-21T10:30:18.698Z,3.40
2023-02-21T10:32:53.106Z,3.50
2023-02-21T10:35:27.050Z,8.20
2023-02-21T10:38:04.787Z,6.60
2023-02-21T10:40:43.295Z,3.10
2023-02-21T10:43:22.465Z,6.90
2023-02-21T10:46:02.863Z,3.60
2023-02-21T10:48:40.555Z,9.60
2023-02-21T10:51:18.237Z,4.80
2023-02-21T10:53:53.141Z,3.70
2023-02-21T10:56:30.563Z,2.80
2023-02-21T10:59:08.272Z,4.80
2023-02-21T11:01:49.218Z,3.50
2023-02-21T11:04:38.648Z,4.50
2023-02-21T11:07:16.188Z,4.00
2023-02-21T11:09:51.956Z,5.70
2023-02-21T11:12:31.252Z,3.90
2023-02-21T11:15:21.939Z,3.80
2023-02-21T11:18:14.318Z,3.10
2023-02-21T11:20:48.872Z,3.70
2023-02-21T11:23:31.597Z,4.00
2023-02-21T11:26:14.619Z,3.40
2023-02-21T11:28:50.301Z,2.60
2023-02-21T11:31:32.253Z,4.00
2023-02-21T11:34:10.612Z,3.40
2023-02-21T11:36:49.669Z,3.00
2023-02-21T11:39:33.396Z,3.10
2023-02-21T11:42:29.434Z,3.10
2023-02-21T11:45:33.076Z,3.00
2023-02-21T11:48:17.328Z,3.40
2023-02-21T11:50:56.955Z,2.90
2023-02-21T11:53:37.415Z,8.40
2023-02-21T11:56:25.322Z,3.50
2023-02-21T11:59:11.565Z,4.10
2023-02-21T12:02:03.498Z,3.50
2023-02-21T12:04:56.370Z,4.10
2023-02-21T12:07:43.619Z,2.60
2023-02-21T12:10:41.772Z,3.10
2023-02-21T12:13:44.033Z,3.20
2023-02-21T12:16:43.194Z,2.80
2023-02-21T12:19:39.626Z,6.40
2023-02-21T12:22:30.881Z,3.30
2023-02-21T12:25:22.251Z,3.20
2023-02-21T12:28:18.091Z,3.20
2023-02-21T12:31:14.455Z,2.40
2023-02-21T12:33:59.548Z,3.40
2023-02-21T12:36:54.344Z,3.30
2023-02-21T12:39:54.199Z,2.10
2023-02-21T12:42:46.717Z,3.40
2023-02-21T12:45:42.847Z,3.50
2023-02-21T12:48:32.389Z,3.00
2023-02-21T13:02:25.446Z,4.50
2023-02-21T13:05:05.059Z,3.60
2023-02-21T13:07:45.527Z,3.60
2023-02-21T13:10:27.876Z,3.40
2023-02-21T13:13:11.307Z,3.60
2023-02-21T13:15:48.093Z,4.00
2023-02-21T13:18:27.995Z,3.50
2023-02-21T13:21:20.892Z,3.40
2023-02-21T13:24:17.856Z,2.80
2023-02-21T13:30:21.061Z,3.00
2023-02-21T13:33:01.050Z,2.00
2023-02-21T13:35:40.389Z,3.20
2023-02-21T13:38:15.787Z,2.00
2023-02-21T13:40:55.747Z,3.20
2023-02-21T13:43:33.059Z,2.70
2023-02-21T13:46:59.804Z,2.00
2023-02-21T13:50:00.482Z,1.90
2023-02-21T13:53:21.930Z,2.00
2023-02-21T13:56:56.602Z,2.30
2023-02-21T13:59:55.186Z,1.90
2023-02-21T14:03:08.308Z,1.80
2023-02-21T14:06:49.262Z,2.20
2023-02-21T14:09:36.253Z,2.00
2023-02-21T14:12:15.971Z,2.30
2023-02-21T14:14:52.683Z,2.20
2023-02-21T14:17:33.240Z,2.10
2023-02-21T14:20:16.046Z,2.70
2023-02-21T14:22:54.043Z,1.40
2023-02-21T14:25:29.610Z,1.60
2023-02-21T14:28:04.781Z,1.80
2023-02-21T14:30:39.842Z,2.40
2023-02-21T14:33:26.484Z,2.70
2023-02-21T14:36:10.448Z,2.20
2023-02-21T14:38:46.164Z,2.40
2023-02-21T14:41:45.969Z,2.20
2023-02-21T14:44:34.682Z,3.00
2023-02-21T14:47:37.753Z,3.40
2023-02-21T14:50:29.598Z,4.60
2023-02-21T14:54:09.767Z,2.60
2023-02-21T14:57:01.823Z,2.70
2023-02-21T14:59:59.799Z,3.40
2023-02-21T15:02:44.690Z,2.60
2023-02-21T15:05:25.121Z,2.90
2023-02-21T15:08:11.448Z,2.10
2023-02-21T15:10:48.269Z,2.30
2023-02-21T15:13:31.659Z,3.80
2023-02-21T15:16:09.956Z,2.60
2023-02-21T15:19:01.360Z,3.90
2023-02-21T15:21:35.311Z,4.60
2023-02-21T15:24:18.719Z,4.80
2023-02-21T15:27:09.077Z,4.20
2023-02-21T15:29:43.489Z,4.80
2023-02-21T15:32:19.143Z,5.30
2023-02-21T15:34:56.109Z,4.40
2023-02-21T15:37:35.544Z,5.40
2023-02-21T15:40:24.799Z,4.00
2023-02-21T15:43:00.531Z,5.30
2023-02-21T15:45:43.405Z,7.30
2023-02-21T15:48:17.813Z,7.50
2023-02-21T15:50:53.067Z,5.20
2023-02-21T15:53:28.476Z,4.70
2023-02-21T15:56:25.020Z,8.90
2023-02-21T15:59:26.558Z,9.30
2023-02-21T16:02:22.845Z,7.80
2023-02-21T16:04:57.841Z,9.40
2023-02-21T16:07:37.568Z,5.80
2023-02-21T16:10:17.029Z,7.20
2023-02-21T16:12:58.925Z,6.10
2023-02-21T16:15:35.514Z,5.00
2023-02-21T16:18:13.595Z,5.40
2023-02-21T16:20:59.457Z,3.70
2023-02-21T16:23:41.279Z,7.90
2023-02-21T16:26:28.460Z,6.80
2023-02-21T16:29:03.648Z,5.80
2023-02-21T16:31:39.925Z,9.20
2023-02-21T16:34:17.486Z,6.60
2023-02-21T16:36:54.835Z,11.70
2023-02-21T16:39:28.527Z,12.40
2023-02-21T16:42:02.376Z,14.00
2023-02-21T16:44:36.106Z,11.30
2023-02-21T16:47:14.764Z,10.90
2023-02-21T16:49:49.456Z,12.70
2023-02-21T16:52:23.524Z,10.50
2023-02-21T16:54:57.329Z,9.40
2023-02-21T16:57:31.146Z,9.40
2023-02-21T17:00:05.348Z,9.30
2023-02-21T17:02:39.198Z,10.60
2023-02-21T17:05:13.168Z,9.50
2023-02-21T17:07:47.004Z,11.00
2023-02-21T17:10:21.267Z,11.50
2023-02-21T17:12:55.376Z,8.40
2023-02-21T17:15:29.618Z,13.10
2023-02-21T17:18:04.006Z,12.00
2023-02-21T17:20:38.258Z,17.70
2023-02-21T17:23:12.183Z,19.40
2023-02-21T17:25:46.146Z,17.70
2023-02-21T17:28:21.484Z,21.30
2023-02-21T17:30:55.546Z,22.50
2023-02-21T17:33:29.450Z,18.90
2023-02-21T17:36:03.248Z,17.60
2023-02-21T17:38:37.461Z,19.90
2023-02-21T17:41:11.587Z,16.70
2023-02-21T17:43:45.875Z,20.90
2023-02-21T17:46:22.558Z,19.90
2023-02-21T17:48:56.891Z,18.00
2023-02-21T17:51:30.715Z,21.80
2023-02-21T17:54:04.640Z,16.80
2023-02-21T17:56:38.549Z,17.30
2023-02-21T17:59:12.421Z,19.10
2023-02-21T18:01:46.775Z,16.70
2023-02-21T18:04:20.850Z,13.30
2023-02-21T18:06:54.795Z,13.40
2023-02-21T18:09:29.331Z,16.00
2023-02-21T18:12:04.572Z,12.60
2023-02-21T18:14:38.647Z,15.00
2023-02-21T18:17:12.713Z,17.20
2023-02-21T18:19:46.735Z,15.20
2023-02-21T18:22:20.833Z,11.90
2023-02-21T18:24:54.841Z,12.40
2023-02-21T18:27:28.652Z,14.10
2023-02-21T18:30:03.270Z,18.00
2023-02-21T18:32:37.435Z,17.80
2023-02-21T18:35:13.705Z,25.00
2023-02-21T18:37:48.730Z,21.70
2023-02-21T18:40:34.258Z,21.40
2023-02-21T18:43:08.964Z,18.40
2023-02-21T18:45:43.111Z,22.00
2023-02-21T18:48:17.756Z,22.80
2023-02-21T18:50:52.128Z,24.10
2023-02-21T18:53:26.077Z,24.00
2023-02-21T18:56:00.231Z,17.80
2023-02-21T18:58:34.100Z,18.80
2023-02-21T19:01:11.455Z,15.40
2023-02-21T19:03:45.962Z,16.80
2023-02-21T19:06:22.845Z,15.20
2023-02-21T19:08:57.780Z,15.10
2023-02-21T19:11:31.497Z,21.20
2023-02-21T19:14:05.771Z,18.80
2023-02-21T19:16:39.816Z,14.30
2023-02-21T19:19:14.013Z,15.10
2023-02-21T19:21:49.045Z,17.00
2023-02-21T19:24:22.881Z,13.50
2023-02-21T19:26:56.698Z,15.00
2023-02-21T19:29:30.972Z,12.50
2023-02-21T19:32:04.826Z,10.00
2023-02-21T19:34:38.734Z,14.80
2023-02-21T19:37:12.349Z,17.70
2023-02-21T19:39:46.421Z,16.00
2023-02-21T19:42:20.193Z,14.50
2023-02-21T19:44:54.507Z,17.00
2023-02-21T19:47:29.560Z,20.00
2023-02-21T19:50:03.647Z,18.30
2023-02-21T19:52:37.540Z,18.50
2023-02-21T19:55:15.846Z,15.70
2023-02-21T19:57:49.891Z,21.10
2023-02-21T20:00:27.266Z,25.20
2023-02-21T20:03:01.200Z,20.50
2023-02-21T20:05:35.280Z,20.60
2023-02-21T20:08:09.715Z,17.50
2023-02-21T20:10:43.958Z,26.20
2023-02-21T20:13:17.912Z,22.60
2023-02-21T20:15:52.244Z,22.40
2023-02-21T20:18:26.023Z,16.00
2023-02-21T20:21:00.468Z,23.00
2023-02-21T20:23:34.764Z,20.20
2023-02-21T20:26:13.258Z,19.40
2023-02-21T20:28:49.733Z,22.90
2023-02-21T20:31:28.399Z,22.00
2023-02-21T20:34:03.124Z,19.20
2023-02-21T20:36:39.850Z,23.80
2023-02-21T20:39:28.280Z,21.60
2023-02-21T20:42:06.601Z,21.60
2023-02-21T20:44:43.248Z,21.40
2023-02-21T20:47:17.198Z,26.40
2023-02-21T20:49:51.707Z,25.40
2023-02-21T20:52:25.504Z,24.50
2023-02-21T20:54:59.377Z,22.50
2023-02-21T20:57:34.026Z,21.60
2023-02-21T21:00:11.284Z,24.90
2023-02-21T21:02:45.907Z,27.10
2023-02-21T21:05:21.249Z,25.50
2023-02-21T21:07:56.707Z,23.60
2023-02-21T21:10:30.793Z,21.70
2023-02-21T21:13:05.029Z,24.90
2023-02-21T21:15:39.248Z,26.00
2023-02-21T21:18:13.544Z,17.80
2023-02-21T21:20:47.687Z,19.70
2023-02-21T21:23:21.977Z,17.90
2023-02-21T21:25:56.882Z,22.40
2023-02-21T21:28:32.904Z,18.80
2023-02-21T21:31:10.144Z,18.70
2023-02-21T21:33:44.157Z,20.10
2023-02-21T21:36:19.281Z,22.90
2023-02-21T21:38:53.099Z,20.20
2023-02-21T21:41:26.986Z,20.40
2023-02-21T21:44:00.952Z,23.20
2023-02-21T21:46:34.824Z,14.80
2023-02-21T21:49:08.778Z,22.50
2023-02-21T21:51:43.606Z,22.10
2023-02-21T21:54:20.913Z,16.30
2023-02-21T21:56:55.972Z,20.70
2023-02-21T21:59:30.946Z,14.10
2023-02-21T22:02:04.969Z,21.10
2023-02-21T22:04:39.700Z,15.20
2023-02-21T22:07:15.266Z,20.50
2023-02-21T22:09:49.707Z,13.30
2023-02-21T22:12:23.450Z,18.30
2023-02-21T22:14:57.525Z,18.50
2023-02-21T22:17:31.489Z,18.70
2023-02-21T22:20:17.073Z,16.00
2023-02-21T22:22:57.039Z,16.80
2023-02-21T22:25:32.858Z,20.90
2023-02-21T22:28:10.650Z,18.30
2023-02-21T22:30:46.171Z,16.80
2023-02-21T22:33:22.652Z,17.60
2023-02-21T22:35:56.658Z,13.40
2023-02-21T22:38:30.520Z,20.70
2023-02-21T22:41:04.803Z,16.90
2023-02-21T22:43:39.224Z,25.60
2023-02-21T22:46:13.138Z,19.60
2023-02-21T22:48:47.687Z,18.20
2023-02-21T22:51:28.571Z,16.20
2023-02-21T22:54:02.614Z,18.20
2023-02-21T22:56:38.567Z,12.00
2023-02-21T22:59:12.724Z,23.70
2023-02-21T23:01:47.677Z,15.60
2023-02-21T23:04:27.020Z,17.30
2023-02-21T23:07:03.953Z,17.10
2023-02-21T23:09:39.652Z,17.90
2023-02-21T23:12:16.709Z,19.10
2023-02-21T23:14:53.671Z,18.20
2023-02-21T23:17:30.656Z,17.20
2023-02-21T23:20:16.642Z,18.90
2023-02-21T23:22:53.635Z,12.60
2023-02-21T23:25:35.629Z,22.30
2023-02-21T23:28:14.679Z,18.30
2023-02-21T23:30:50.645Z,19.50
2023-02-21T23:33:29.646Z,18.80
2023-02-21T23:36:06.626Z,21.10
2023-02-21T23:38:43.622Z,14.30
2023-02-21T23:41:21.664Z,19.40
2023-02-21T23:43:58.641Z,17.20
2023-02-21T23:46:34.823Z,14.10
2023-02-21T23:49:16.302Z,19.40
2023-02-21T23:51:54.651Z,19.40
2023-02-21T23:54:31.694Z,21.00
2023-02-21T23:57:08.683Z,19.40
2023-02-21T23:59:44.708Z,18.00
